createdAt,value
2022-11-21T00:00:13.267Z,18.10
2022-11-21T00:02:40.487Z,17.35
2022-11-21T00:05:07.867Z,18.48
2022-11-21T00:07:35.164Z,16.90
2022-11-21T00:10:02.339Z,18.10
2022-11-21T00:12:29.520Z,16.52
2022-11-21T00:14:56.678Z,16.17
2022-11-21T00:17:23.866Z,17.80
2022-11-21T00:19:51.049Z,17.15
2022-11-21T00:22:18.207Z,17.48
2022-11-21T00:24:45.510Z,16.92
2022-11-21T00:27:12.628Z,18.73
2022-11-21T00:29:39.845Z,17.75
2022-11-21T00:32:06.997Z,18.10
2022-11-21T00:34:34.278Z,17.55
2022-11-21T00:37:01.402Z,18.25
2022-11-21T00:39:28.781Z,17.63
2022-11-21T00:41:55.987Z,18.65
2022-11-21T00:44:23.143Z,17.85
2022-11-21T00:46:50.275Z,19.40
2022-11-21T00:49:17.469Z,18.15
2022-11-21T00:51:44.612Z,20.17
2022-11-21T00:54:11.788Z,18.75
2022-11-21T00:56:39.052Z,18.65
2022-11-21T00:59:06.220Z,19.02
2022-11-21T01:01:33.369Z,19.88
2022-11-21T01:04:00.606Z,18.55
2022-11-21T01:06:27.746Z,19.10
2022-11-21T01:08:54.953Z,17.63
2022-11-21T01:11:22.415Z,19.25
2022-11-21T01:13:49.763Z,18.70
2022-11-21T01:16:18.606Z,18.75
2022-11-21T01:18:46.187Z,16.95
2022-11-21T01:21:14.482Z,19.48
2022-11-21T01:23:41.722Z,18.83
2022-11-21T01:26:11.423Z,18.05
2022-11-21T01:28:38.680Z,19.05
2022-11-21T01:31:13.127Z,19.02
2022-11-21T01:33:40.785Z,21.35
2022-11-21T01:36:18.670Z,18.38
2022-11-21T01:38:47.068Z,20.48
2022-11-21T01:41:15.595Z,19.20
2022-11-21T01:43:42.825Z,20.50
2022-11-21T01:46:10.015Z,20.00
2022-11-21T01:48:37.142Z,20.10
2022-11-21T01:51:08.585Z,21.25
2022-11-21T01:53:36.918Z,20.58
2022-11-21T01:56:04.620Z,18.92
2022-11-21T01:58:33.122Z,20.10
2022-11-21T02:01:00.568Z,19.50
2022-11-21T02:03:31.181Z,20.08
2022-11-21T02:05:58.994Z,21.38
2022-11-21T02:08:27.170Z,20.23
2022-11-21T02:11:12.616Z,20.25
2022-11-21T02:13:39.807Z,20.27
2022-11-21T02:16:07.956Z,21.35
2022-11-21T02:18:35.484Z,22.33
2022-11-21T02:21:20.240Z,20.75
2022-11-21T02:23:57.649Z,22.27
2022-11-21T02:26:27.552Z,21.25
2022-11-21T02:28:54.959Z,21.48
2022-11-21T02:31:22.115Z,21.70
2022-11-21T02:33:49.365Z,21.52
2022-11-21T02:36:39.345Z,20.23
2022-11-21T02:39:08.007Z,21.65
2022-11-21T02:41:36.095Z,20.10
2022-11-21T02:44:06.172Z,19.90
2022-11-21T02:46:35.362Z,20.90
2022-11-21T02:49:04.764Z,21.77
2022-11-21T02:51:31.944Z,21.58
2022-11-21T02:53:59.138Z,22.35
2022-11-21T02:56:26.321Z,20.63
2022-11-21T02:58:53.834Z,22.13
2022-11-21T03:01:21.210Z,21.27
2022-11-21T03:03:48.367Z,20.63
2022-11-21T03:06:15.572Z,18.88
2022-11-21T03:08:42.711Z,19.35
2022-11-21T03:11:09.870Z,19.50
2022-11-21T03:13:37.135Z,19.52
2022-11-21T03:16:04.363Z,20.42
2022-11-21T03:18:31.498Z,20.45
2022-11-21T03:20:58.858Z,20.90
2022-11-21T03:23:26.077Z,19.73
2022-11-21T03:25:53.253Z,20.88
2022-11-21T03:28:20.401Z,20.90
2022-11-21T03:30:47.904Z,20.92
2022-11-21T03:33:15.052Z,19.45
2022-11-21T03:35:42.233Z,21.75
2022-11-21T03:38:09.391Z,20.48
2022-11-21T03:40:36.614Z,21.23
2022-11-21T03:43:07.842Z,19.75
2022-11-21T03:45:35.010Z,19.05
2022-11-21T03:48:02.273Z,21.70
2022-11-21T03:50:29.476Z,20.92
2022-11-21T03:52:56.638Z,21.83
2022-11-21T03:55:23.759Z,20.85
2022-11-21T03:57:50.926Z,19.92
2022-11-21T04:00:18.192Z,19.75
2022-11-21T04:02:45.424Z,20.90
2022-11-21T04:05:12.611Z,21.35
2022-11-21T04:07:39.885Z,20.10
2022-11-21T04:10:07.295Z,20.27
2022-11-21T04:12:34.487Z,20.40
2022-11-21T04:15:01.684Z,20.00
2022-11-21T04:17:29.017Z,21.05
2022-11-21T04:19:56.171Z,21.17
2022-11-21T04:22:23.417Z,20.33
2022-11-21T04:24:50.588Z,20.85
2022-11-21T04:27:17.733Z,19.52
2022-11-21T04:29:44.891Z,21.95
2022-11-21T04:32:12.028Z,21.50
2022-11-21T04:34:39.667Z,22.67
2022-11-21T04:37:11.418Z,23.88
2022-11-21T04:39:39.036Z,20.48
2022-11-21T04:42:06.211Z,20.70
2022-11-21T04:44:33.418Z,20.70
2022-11-21T04:47:05.406Z,20.70
2022-11-21T04:49:32.951Z,22.40
2022-11-21T04:52:00.092Z,21.40
2022-11-21T04:54:27.621Z,21.73
2022-11-21T04:56:55.025Z,20.13
2022-11-21T04:59:22.244Z,22.10
2022-11-21T05:01:49.403Z,20.63
2022-11-21T05:04:16.617Z,21.13
2022-11-21T05:06:43.746Z,22.30
2022-11-21T05:09:10.877Z,20.30
2022-11-21T05:11:56.500Z,20.75
2022-11-21T05:14:26.543Z,21.63
2022-11-21T05:16:54.811Z,20.90
2022-11-21T05:19:21.976Z,21.33
2022-11-21T05:21:50.637Z,20.58
2022-11-21T05:24:17.762Z,22.42
2022-11-21T05:26:44.911Z,22.00
2022-11-21T05:29:12.996Z,21.15
2022-11-21T05:31:40.142Z,22.33
2022-11-21T05:34:07.315Z,22.05
2022-11-21T05:36:34.471Z,22.50
2022-11-21T05:39:01.645Z,23.05
2022-11-21T05:41:28.824Z,21.20
2022-11-21T05:43:56.112Z,20.35
2022-11-21T05:46:24.715Z,21.85
2022-11-21T05:48:52.679Z,21.83
2022-11-21T05:51:20.273Z,20.83
2022-11-21T05:53:48.278Z,22.30
2022-11-21T05:56:16.727Z,21.05
2022-11-21T05:58:43.907Z,21.00
2022-11-21T06:01:12.044Z,21.20
2022-11-21T06:03:40.344Z,21.60
2022-11-21T06:06:10.560Z,21.90
2022-11-21T06:08:38.775Z,22.70
2022-11-21T06:11:06.865Z,23.70
2022-11-21T06:13:34.451Z,23.13
2022-11-21T06:16:02.781Z,22.45
2022-11-21T06:18:31.986Z,24.10
2022-11-21T06:21:03.318Z,24.45
2022-11-21T06:23:30.517Z,24.60
2022-11-21T06:26:01.582Z,24.95
2022-11-21T06:28:31.220Z,25.75
2022-11-21T06:31:02.971Z,24.60
2022-11-21T06:33:30.175Z,25.27
2022-11-21T06:35:57.348Z,25.67
2022-11-21T06:38:24.524Z,25.60
2022-11-21T06:40:51.705Z,25.65
2022-11-21T06:43:18.860Z,26.95
2022-11-21T06:45:46.479Z,26.15
2022-11-21T06:48:13.714Z,25.63
2022-11-21T06:50:40.895Z,25.83
2022-11-21T06:53:08.086Z,25.60
2022-11-21T06:55:35.416Z,25.23
2022-11-21T06:58:02.604Z,26.35
2022-11-21T07:00:29.936Z,25.00
2022-11-21T07:03:03.798Z,27.50
2022-11-21T07:05:31.306Z,25.58
2022-11-21T07:07:59.307Z,25.45
2022-11-21T07:10:26.473Z,25.73
2022-11-21T07:13:15.938Z,26.60
2022-11-21T07:15:43.468Z,25.88
2022-11-21T07:18:10.640Z,24.02
2022-11-21T07:20:37.874Z,22.33
2022-11-21T07:23:05.392Z,27.73
2022-11-21T07:25:36.473Z,28.90
2022-11-21T07:28:05.030Z,28.10
2022-11-21T07:30:32.513Z,27.45
2022-11-21T07:33:00.391Z,26.15
2022-11-21T07:35:27.879Z,26.75
2022-11-21T07:37:55.292Z,26.33
2022-11-21T07:40:22.481Z,25.83
2022-11-21T07:42:49.889Z,25.55
2022-11-21T07:45:17.483Z,28.35
2022-11-21T07:47:44.780Z,26.80
2022-11-21T07:50:13.005Z,25.55
2022-11-21T07:52:40.231Z,25.38
2022-11-21T07:55:07.735Z,25.13
2022-11-21T07:57:34.970Z,26.42
2022-11-21T08:00:02.164Z,26.30
2022-11-21T08:02:29.693Z,24.75
2022-11-21T08:04:56.860Z,27.35
2022-11-21T08:07:24.660Z,25.25
2022-11-21T08:09:52.135Z,25.88
2022-11-21T08:12:19.400Z,24.83
2022-11-21T08:14:46.573Z,24.35
2022-11-21T08:17:14.156Z,24.83
2022-11-21T08:19:41.368Z,24.15
2022-11-21T08:22:08.543Z,23.77
2022-11-21T08:24:35.698Z,23.80
2022-11-21T08:27:02.910Z,23.88
2022-11-21T08:29:30.324Z,24.42
2022-11-21T08:31:57.613Z,22.90
2022-11-21T08:34:24.867Z,23.73
2022-11-21T08:36:52.096Z,23.05
2022-11-21T08:39:19.247Z,22.00
2022-11-21T08:42:04.938Z,22.80
2022-11-21T08:44:33.025Z,22.65
2022-11-21T08:47:00.784Z,21.52
2022-11-21T08:49:28.074Z,20.67
2022-11-21T08:51:55.326Z,23.60
2022-11-21T08:54:23.459Z,21.17
2022-11-21T08:56:50.942Z,22.15
2022-11-21T08:59:18.484Z,21.65
2022-11-21T09:01:45.749Z,22.50
2022-11-21T09:04:12.982Z,21.25
2022-11-21T09:06:40.196Z,23.15
2022-11-21T09:09:07.735Z,21.55
2022-11-21T09:11:34.975Z,21.52
2022-11-21T09:14:21.027Z,20.35
2022-11-21T09:17:06.855Z,20.95
2022-11-21T09:19:34.080Z,20.15
2022-11-21T09:22:01.219Z,21.20
2022-11-21T09:24:28.381Z,20.35
2022-11-21T09:26:55.627Z,20.75
2022-11-21T09:29:22.770Z,20.70
2022-11-21T09:31:49.912Z,21.98
2022-11-21T09:34:17.102Z,21.17
2022-11-21T09:36:44.231Z,19.85
2022-11-21T09:39:11.468Z,20.55
2022-11-21T09:41:52.390Z,20.77
2022-11-21T09:44:25.940Z,20.38
2022-11-21T09:46:56.797Z,20.85
2022-11-21T09:49:26.455Z,20.95
2022-11-21T09:51:54.872Z,20.85
2022-11-21T09:54:31.998Z,21.52
2022-11-21T09:57:00.873Z,21.02
2022-11-21T09:59:33.137Z,20.98
2022-11-21T10:02:00.419Z,20.10
2022-11-21T10:04:28.066Z,18.17
2022-11-21T10:07:01.053Z,18.15
2022-11-21T10:09:34.099Z,18.40
2022-11-21T10:12:25.867Z,19.10
2022-11-21T10:14:55.797Z,18.10
2022-11-21T10:17:34.061Z,18.00
2022-11-21T10:20:01.176Z,18.40
2022-11-21T10:22:45.327Z,17.23
2022-11-21T10:25:15.243Z,19.05
2022-11-21T10:27:48.236Z,17.10
2022-11-21T10:30:16.583Z,16.83
2022-11-21T10:33:04.651Z,18.42
2022-11-21T10:35:41.722Z,17.40
2022-11-21T10:38:18.340Z,16.48
2022-11-21T10:40:47.952Z,17.35
2022-11-21T10:43:42.847Z,15.88
2022-11-21T10:46:10.107Z,15.23
2022-11-21T10:48:37.483Z,16.05
2022-11-21T10:51:10.776Z,15.20
2022-11-21T10:53:56.904Z,16.13
2022-11-21T10:56:26.518Z,16.63
2022-11-21T10:58:54.830Z,15.98
2022-11-21T11:01:30.072Z,15.90
2022-11-21T11:04:40.681Z,14.45
2022-11-21T11:07:24.729Z,16.10
2022-11-21T11:09:52.695Z,14.80
2022-11-21T11:12:48.871Z,15.75
2022-11-21T11:15:34.564Z,13.85
2022-11-21T11:18:09.175Z,14.88
2022-11-21T11:20:43.856Z,13.55
2022-11-21T11:23:27.708Z,14.13
2022-11-21T11:25:58.976Z,14.52
2022-11-21T11:28:27.303Z,13.98
2022-11-21T11:30:55.588Z,13.32
2022-11-21T11:33:42.124Z,13.52
2022-11-21T11:36:17.362Z,14.38
2022-11-21T11:41:28.904Z,13.30
2022-11-21T11:44:23.415Z,13.50
2022-11-21T11:47:14.911Z,12.75
2022-11-21T11:50:11.829Z,13.27
2022-11-21T11:52:51.098Z,12.63
2022-11-21T11:55:25.171Z,13.25
2022-11-21T11:57:54.572Z,12.88
2022-11-21T12:00:53.953Z,12.10
2022-11-21T12:03:41.412Z,12.50
2022-11-21T12:07:04.158Z,12.82
2022-11-21T12:09:17.817Z,11.25
2022-11-21T12:12:08.226Z,11.38
2022-11-21T12:15:06.482Z,11.02
2022-11-21T12:17:42.764Z,11.73
2022-11-21T12:20:15.789Z,12.32
2022-11-21T12:22:43.224Z,11.45
2022-11-21T12:25:13.902Z,9.95
2022-11-21T12:27:42.561Z,11.35
2022-11-21T12:30:20.929Z,10.95
2022-11-21T12:33:08.277Z,10.68
2022-11-21T12:36:16.315Z,10.43
2022-11-21T12:38:52.697Z,11.82
2022-11-21T12:41:46.332Z,10.60
2022-11-21T12:44:19.352Z,10.85
2022-11-21T12:46:52.331Z,11.23
2022-11-21T12:50:02.466Z,10.60
2022-11-21T12:52:51.484Z,11.30
2022-11-21T12:55:18.769Z,10.35
2022-11-21T12:58:06.207Z,10.93
2022-11-21T13:00:39.380Z,9.70
2022-11-21T13:03:25.499Z,9.80
2022-11-21T13:05:53.659Z,10.43
2022-11-21T13:08:24.608Z,10.27
2022-11-21T13:11:23.103Z,10.25
2022-11-21T13:13:52.673Z,10.80
2022-11-21T13:16:36.875Z,11.23
2022-11-21T13:19:27.768Z,11.02
2022-11-21T13:21:55.194Z,11.48
2022-11-21T13:24:40.880Z,11.10
2022-11-21T13:29:35.218Z,10.10
2022-11-21T13:32:22.415Z,11.13
2022-11-21T13:34:49.641Z,10.60
2022-11-21T13:37:36.712Z,10.75
2022-11-21T13:40:26.892Z,10.05
2022-11-21T13:45:59.907Z,9.90
2022-11-21T13:48:36.483Z,9.18
2022-11-21T13:51:11.600Z,9.32
2022-11-21T13:53:41.617Z,10.68
2022-11-21T13:56:17.917Z,9.82
2022-11-21T13:58:57.408Z,10.45
2022-11-21T14:01:43.171Z,10.85
2022-11-21T14:04:10.373Z,10.10
2022-11-21T14:06:39.026Z,11.57
2022-11-21T14:09:24.702Z,11.15
2022-11-21T14:14:45.337Z,9.35
2022-11-21T14:17:25.540Z,10.23
2022-11-21T14:19:55.351Z,10.07
2022-11-21T14:22:31.866Z,10.23
2022-11-21T14:25:02.130Z,10.98
2022-11-21T14:27:31.426Z,11.77
2022-11-21T14:29:59.077Z,10.85
2022-11-21T14:32:27.301Z,11.07
2022-11-21T14:34:54.541Z,11.90
2022-11-21T14:37:21.943Z,10.07
2022-11-21T14:39:55.590Z,11.05
2022-11-21T14:42:24.150Z,11.02
2022-11-21T14:45:06.723Z,10.93
2022-11-21T14:47:33.904Z,10.93
2022-11-21T14:50:07.075Z,10.90
2022-11-21T14:52:35.008Z,11.80
2022-11-21T14:55:29.267Z,12.95
2022-11-21T14:57:54.401Z,12.18
2022-11-21T15:00:58.070Z,12.85
2022-11-21T15:03:19.152Z,11.32
2022-11-21T15:06:01.866Z,11.73
2022-11-21T15:09:06.017Z,11.05
2022-11-21T15:11:19.642Z,11.10
2022-11-21T15:16:40.367Z,11.35
2022-11-21T15:19:11.037Z,11.35
2022-11-21T15:21:38.424Z,10.88
2022-11-21T15:24:18.726Z,11.38
2022-11-21T15:26:47.397Z,11.70
2022-11-21T15:29:20.352Z,12.05
2022-11-21T15:31:47.676Z,11.38
2022-11-21T15:34:35.440Z,11.02
2022-11-21T15:37:04.956Z,12.05
2022-11-21T15:39:32.482Z,10.80
2022-11-21T15:42:19.919Z,12.13
2022-11-21T15:45:03.629Z,12.52
2022-11-21T15:47:30.788Z,11.48
2022-11-21T15:49:58.007Z,12.23
2022-11-21T15:52:25.237Z,10.57
2022-11-21T15:54:52.432Z,11.07
2022-11-21T15:57:14.215Z,10.70
2022-11-21T15:59:53.145Z,10.57
2022-11-21T16:02:20.459Z,11.73
2022-11-21T16:04:47.643Z,10.68
2022-11-21T16:07:14.889Z,10.95
2022-11-21T16:09:43.174Z,10.48
2022-11-21T16:12:10.345Z,11.20
2022-11-21T16:14:37.467Z,10.68
2022-11-21T16:17:04.659Z,11.30
2022-11-21T16:19:32.045Z,11.30
2022-11-21T16:21:59.336Z,11.13
2022-11-21T16:24:26.492Z,11.35
2022-11-21T16:26:55.376Z,12.23
2022-11-21T16:29:22.611Z,11.40
2022-11-21T16:31:51.043Z,11.85
2022-11-21T16:34:22.600Z,12.20
2022-11-21T16:36:50.610Z,11.73
2022-11-21T16:39:18.648Z,11.75
2022-11-21T16:41:47.392Z,11.98
2022-11-21T16:44:15.586Z,12.13
2022-11-21T16:46:43.779Z,11.88
2022-11-21T16:49:11.300Z,12.77
2022-11-21T16:51:38.444Z,12.20
2022-11-21T16:54:08.822Z,13.07
2022-11-21T16:56:36.707Z,13.35
2022-11-21T16:59:03.860Z,13.27
2022-11-21T17:01:31.176Z,13.15
2022-11-21T17:03:58.470Z,13.95
2022-11-21T17:06:27.149Z,13.90
2022-11-21T17:08:55.007Z,13.68
2022-11-21T17:11:23.436Z,15.00
2022-11-21T17:13:52.086Z,17.58
2022-11-21T17:16:20.487Z,15.50
2022-11-21T17:18:47.985Z,15.38
2022-11-21T17:21:16.321Z,16.50
2022-11-21T17:23:44.681Z,16.30
2022-11-21T17:26:19.430Z,15.60
2022-11-21T17:28:51.973Z,16.52
2022-11-21T17:31:19.231Z,15.93
2022-11-21T17:33:51.372Z,17.27
2022-11-21T17:36:20.088Z,16.10
2022-11-21T17:38:47.969Z,16.40
2022-11-21T17:41:19.523Z,17.75
2022-11-21T17:43:47.249Z,15.75
2022-11-21T17:46:16.862Z,17.30
2022-11-21T17:48:45.686Z,16.73
2022-11-21T17:51:16.949Z,17.45
2022-11-21T17:53:45.124Z,17.65
2022-11-21T17:56:13.844Z,17.33
2022-11-21T17:58:41.435Z,16.88
2022-11-21T18:01:10.600Z,17.27
2022-11-21T18:03:37.883Z,18.15
2022-11-21T18:06:06.073Z,18.00
2022-11-21T18:08:33.995Z,19.13
2022-11-21T18:11:01.379Z,17.70
2022-11-21T18:13:29.266Z,20.00
2022-11-21T18:15:56.989Z,20.55
2022-11-21T18:18:24.191Z,19.02
2022-11-21T18:20:51.428Z,18.95
2022-11-21T18:23:18.599Z,19.35
2022-11-21T18:25:47.030Z,20.55
2022-11-21T18:28:14.336Z,20.63
2022-11-21T18:30:41.613Z,19.83
2022-11-21T18:33:08.794Z,20.65
2022-11-21T18:35:35.929Z,19.20
2022-11-21T18:38:03.159Z,19.63
2022-11-21T18:40:30.364Z,19.75
2022-11-21T18:42:57.551Z,19.25
2022-11-21T18:45:24.728Z,20.58
2022-11-21T18:47:51.948Z,19.75
2022-11-21T18:50:19.164Z,20.40
2022-11-21T18:52:46.972Z,21.58
2022-11-21T18:55:14.475Z,21.50
2022-11-21T18:57:41.716Z,22.35
2022-11-21T19:00:09.188Z,20.98
2022-11-21T19:02:36.384Z,21.00
2022-11-21T19:05:03.561Z,21.27
2022-11-21T19:07:30.831Z,20.80
2022-11-21T19:10:14.700Z,21.40
2022-11-21T19:12:45.267Z,21.50
2022-11-21T19:15:12.421Z,20.35
2022-11-21T19:17:39.688Z,20.77
2022-11-21T19:20:07.088Z,18.92
2022-11-21T19:22:34.275Z,22.25
2022-11-21T19:25:01.445Z,19.60
2022-11-21T19:27:28.669Z,21.83
2022-11-21T19:29:55.885Z,21.92
2022-11-21T19:32:23.366Z,19.48
2022-11-21T19:34:50.619Z,20.77
2022-11-21T19:37:17.841Z,20.50
2022-11-21T19:39:46.433Z,22.10
2022-11-21T19:42:13.762Z,21.67
2022-11-21T19:44:40.975Z,22.38
2022-11-21T19:47:08.106Z,20.50
2022-11-21T19:49:35.316Z,23.75
2022-11-21T19:52:02.530Z,21.55
2022-11-21T19:54:30.194Z,21.02
2022-11-21T19:56:57.671Z,22.27
2022-11-21T19:59:24.980Z,22.85
2022-11-21T20:01:53.007Z,23.75
2022-11-21T20:04:20.790Z,24.25
2022-11-21T20:06:48.039Z,22.73
2022-11-21T20:09:16.410Z,23.85
2022-11-21T20:11:44.916Z,23.02
2022-11-21T20:14:19.505Z,24.02
2022-11-21T20:16:49.350Z,23.58
2022-11-21T20:19:18.154Z,22.45
2022-11-21T20:21:45.876Z,23.02
2022-11-21T20:24:13.414Z,22.63
2022-11-21T20:26:41.375Z,22.23
2022-11-21T20:29:09.114Z,21.77
2022-11-21T20:31:37.623Z,22.33
2022-11-21T20:34:06.432Z,23.73
2022-11-21T20:36:34.465Z,22.40
2022-11-21T20:39:01.662Z,23.10
2022-11-21T20:41:30.383Z,20.83
2022-11-21T20:44:53.330Z,20.90
2022-11-21T20:46:49.527Z,21.20
2022-11-21T20:49:16.736Z,22.38
2022-11-21T20:54:31.843Z,20.52
2022-11-21T20:56:59.275Z,20.45
2022-11-21T20:59:27.700Z,21.30
2022-11-21T21:01:55.203Z,21.13
2022-11-21T21:04:22.520Z,19.85
2022-11-21T21:06:49.675Z,20.75
2022-11-21T21:09:16.879Z,19.42
2022-11-21T21:11:53.103Z,18.75
2022-11-21T21:14:21.254Z,18.40
2022-11-21T21:16:48.524Z,19.98
2022-11-21T21:19:16.159Z,19.70
2022-11-21T21:21:43.345Z,21.02
2022-11-21T21:24:11.159Z,21.08
2022-11-21T21:26:48.524Z,20.45
2022-11-21T21:29:18.128Z,20.15
2022-11-21T21:31:50.935Z,20.00
2022-11-21T21:34:19.396Z,19.52
2022-11-21T21:36:47.066Z,19.55
2022-11-21T21:39:14.443Z,20.80
2022-11-21T21:41:44.756Z,20.02
2022-11-21T21:44:12.073Z,18.20
2022-11-21T21:46:39.273Z,18.90
2022-11-21T21:49:06.455Z,19.67
2022-11-21T21:51:33.777Z,19.83
2022-11-21T21:54:01.106Z,19.00
2022-11-21T21:56:29.180Z,18.52
2022-11-21T21:58:59.816Z,20.00
2022-11-21T22:01:26.995Z,19.58
2022-11-21T22:03:55.002Z,19.48
2022-11-21T22:06:22.291Z,18.73
2022-11-21T22:08:49.822Z,19.63
2022-11-21T22:11:18.941Z,18.88
2022-11-21T22:13:46.999Z,17.55
2022-11-21T22:16:14.540Z,18.42
2022-11-21T22:18:42.175Z,19.20
2022-11-21T22:21:18.240Z,18.13
2022-11-21T22:24:02.950Z,18.38
2022-11-21T22:26:32.989Z,17.95
2022-11-21T22:29:00.254Z,18.75
2022-11-21T22:31:30.325Z,19.08
2022-11-21T22:33:57.670Z,18.38
2022-11-21T22:36:24.934Z,17.70
2022-11-21T22:38:55.884Z,18.08
2022-11-21T22:41:24.330Z,18.80
2022-11-21T22:43:52.572Z,19.25
2022-11-21T22:46:20.554Z,19.38
2022-11-21T22:48:48.418Z,19.70
2022-11-21T22:51:19.653Z,20.05
2022-11-21T22:53:47.667Z,20.33
2022-11-21T22:56:16.109Z,19.40
2022-11-21T22:58:43.288Z,19.05
2022-11-21T23:01:14.597Z,19.27
2022-11-21T23:03:43.947Z,20.23
2022-11-21T23:06:12.555Z,21.65
2022-11-21T23:08:40.347Z,22.90
2022-11-21T23:11:14.975Z,20.02
2022-11-21T23:13:42.944Z,19.58
2022-11-21T23:16:10.469Z,21.55
2022-11-21T23:18:38.005Z,21.55
2022-11-21T23:21:05.567Z,20.83
2022-11-21T23:23:33.012Z,20.55
2022-11-21T23:26:00.293Z,20.85
2022-11-21T23:28:27.755Z,21.40
2022-11-21T23:30:54.914Z,22.40
2022-11-21T23:33:22.420Z,23.83
2022-11-21T23:35:49.871Z,23.73
2022-11-21T23:38:17.819Z,26.15
2022-11-21T23:40:46.224Z,22.80
2022-11-21T23:43:13.972Z,24.20
2022-11-21T23:45:41.148Z,22.92
2022-11-21T23:48:08.427Z,24.40
2022-11-21T23:50:35.688Z,23.52
2022-11-21T23:53:03.014Z,25.38
2022-11-21T23:55:30.148Z,24.77
2022-11-21T23:57:57.299Z,25.60
